sensor_id;sensor_type;location;lat;lon;timestamp;temperature;humidity
25438;DHT22;13364;49.084;9.978;2022-10-13T00:00:49;9.50;99.90
25438;DHT22;13364;49.084;9.978;2022-10-13T00:03:17;9.40;99.90
25438;DHT22;13364;49.084;9.978;2022-10-13T00:05:46;9.40;99.90
25438;DHT22;13364;49.084;9.978;2022-10-13T00:08:16;9.40;99.90
25438;DHT22;13364;49.084;9.978;2022-10-13T00:10:47;9.40;99.90
25438;DHT22;13364;49.084;9.978;2022-10-13T00:13:16;9.30;99.90
25438;DHT22;13364;49.084;9.978;2022-10-13T00:15:45;9.30;99.90
25438;DHT22;13364;49.084;9.978;2022-10-13T00:18:14;9.20;99.90
25438;DHT22;13364;49.084;9.978;2022-10-13T00:20:47;9.20;99.90
25438;DHT22;13364;49.084;9.978;2022-10-13T00:23:15;9.10;99.90
25438;DHT22;13364;49.084;9.978;2022-10-13T00:25:45;9.10;99.90
25438;DHT22;13364;49.084;9.978;2022-10-13T00:28:13;9.10;99.90
25438;DHT22;13364;49.084;9.978;2022-10-13T00:30:41;9.10;99.90
25438;DHT22;13364;49.084;9.978;2022-10-13T00:33:09;9.10;99.90
25438;DHT22;13364;49.084;9.978;2022-10-13T00:35:42;9.10;99.90
25438;DHT22;13364;49.084;9.978;2022-10-13T00:38:10;9.00;99.90
25438;DHT22;13364;49.084;9.978;2022-10-13T00:40:48;9.00;99.90
25438;DHT22;13364;49.084;9.978;2022-10-13T00:43:24;9.00;99.90
25438;DHT22;13364;49.084;9.978;2022-10-13T00:45:52;9.00;99.90
25438;DHT22;13364;49.084;9.978;2022-10-13T00:48:22;9.00;99.90
25438;DHT22;13364;49.084;9.978;2022-10-13T00:50:51;9.00;99.90
25438;DHT22;13364;49.084;9.978;2022-10-13T00:53:21;9.00;99.90
25438;DHT22;13364;49.084;9.978;2022-10-13T00:55:50;9.00;99.90
25438;DHT22;13364;49.084;9.978;2022-10-13T00:58:21;9.00;99.90
25438;DHT22;13364;49.084;9.978;2022-10-13T01:00:50;9.00;99.90
25438;DHT22;13364;49.084;9.978;2022-10-13T01:03:19;8.90;99.90
25438;DHT22;13364;49.084;9.978;2022-10-13T01:05:47;8.90;99.90
25438;DHT22;13364;49.084;9.978;2022-10-13T01:08:17;9.00;99.90
25438;DHT22;13364;49.084;9.978;2022-10-13T01:13:40;9.00;99.90
25438;DHT22;13364;49.084;9.978;2022-10-13T01:16:29;9.00;99.90
25438;DHT22;13364;49.084;9.978;2022-10-13T01:19:14;9.00;99.90
25438;DHT22;13364;49.084;9.978;2022-10-13T01:31:54;9.30;99.90
25438;DHT22;13364;49.084;9.978;2022-10-13T01:40:18;9.20;99.90
25438;DHT22;13364;49.084;9.978;2022-10-13T01:43:13;9.20;99.90
25438;DHT22;13364;49.084;9.978;2022-10-13T01:45:53;9.10;99.90
25438;DHT22;13364;49.084;9.978;2022-10-13T01:48:21;9.10;99.90
25438;DHT22;13364;49.084;9.978;2022-10-13T01:50:51;9.10;99.90
25438;DHT22;13364;49.084;9.978;2022-10-13T01:53:19;9.10;99.90
25438;DHT22;13364;49.084;9.978;2022-10-13T01:55:56;9.10;99.90
25438;DHT22;13364;49.084;9.978;2022-10-13T01:58:27;9.10;99.90
25438;DHT22;13364;49.084;9.978;2022-10-13T02:12:09;9.10;99.90
25438;DHT22;13364;49.084;9.978;2022-10-13T02:14:40;9.00;99.90
25438;DHT22;13364;49.084;9.978;2022-10-13T02:17:08;9.00;99.90
25438;DHT22;13364;49.084;9.978;2022-10-13T02:19:39;9.00;99.90
25438;DHT22;13364;49.084;9.978;2022-10-13T02:22:07;9.00;99.90
25438;DHT22;13364;49.084;9.978;2022-10-13T02:24:35;9.10;99.90
25438;DHT22;13364;49.084;9.978;2022-10-13T02:27:04;9.10;99.90
25438;DHT22;13364;49.084;9.978;2022-10-13T02:29:32;9.10;99.90
25438;DHT22;13364;49.084;9.978;2022-10-13T02:31:59;9.20;99.90
25438;DHT22;13364;49.084;9.978;2022-10-13T02:34:26;9.20;99.90
25438;DHT22;13364;49.084;9.978;2022-10-13T02:36:53;9.20;99.90
25438;DHT22;13364;49.084;9.978;2022-10-13T02:39:20;9.30;99.90
25438;DHT22;13364;49.084;9.978;2022-10-13T02:41:47;9.30;99.90
25438;DHT22;13364;49.084;9.978;2022-10-13T02:44:14;9.30;99.90
25438;DHT22;13364;49.084;9.978;2022-10-13T02:46:41;9.40;99.90
25438;DHT22;13364;49.084;9.978;2022-10-13T02:49:09;9.30;99.90
25438;DHT22;13364;49.084;9.978;2022-10-13T02:51:36;9.30;99.90
25438;DHT22;13364;49.084;9.978;2022-10-13T02:54:06;9.30;99.90
25438;DHT22;13364;49.084;9.978;2022-10-13T02:56:33;9.40;99.90
25438;DHT22;13364;49.084;9.978;2022-10-13T02:59:00;9.20;99.90
25438;DHT22;13364;49.084;9.978;2022-10-13T03:01:27;9.20;99.90
25438;DHT22;13364;49.084;9.978;2022-10-13T03:03:54;9.10;99.90
25438;DHT22;13364;49.084;9.978;2022-10-13T03:06:21;9.10;99.90
25438;DHT22;13364;49.084;9.978;2022-10-13T03:08:48;9.10;99.90
25438;DHT22;13364;49.084;9.978;2022-10-13T03:11:15;9.10;99.90
25438;DHT22;13364;49.084;9.978;2022-10-13T03:13:42;9.20;99.90
25438;DHT22;13364;49.084;9.978;2022-10-13T03:16:09;9.10;99.90
25438;DHT22;13364;49.084;9.978;2022-10-13T03:18:36;9.20;99.90
25438;DHT22;13364;49.084;9.978;2022-10-13T03:21:05;9.20;99.90
25438;DHT22;13364;49.084;9.978;2022-10-13T03:23:34;9.20;99.90
25438;DHT22;13364;49.084;9.978;2022-10-13T03:26:01;9.30;99.90
25438;DHT22;13364;49.084;9.978;2022-10-13T03:28:30;9.30;99.90
25438;DHT22;13364;49.084;9.978;2022-10-13T03:31:06;9.30;99.90
25438;DHT22;13364;49.084;9.978;2022-10-13T03:33:33;9.40;99.90
25438;DHT22;13364;49.084;9.978;2022-10-13T03:36:03;9.30;99.90
25438;DHT22;13364;49.084;9.978;2022-10-13T03:38:31;9.30;99.90
25438;DHT22;13364;49.084;9.978;2022-10-13T03:41:07;9.30;99.90
25438;DHT22;13364;49.084;9.978;2022-10-13T03:43:34;9.20;99.90
25438;DHT22;13364;49.084;9.978;2022-10-13T03:46:03;9.20;99.90
25438;DHT22;13364;49.084;9.978;2022-10-13T03:48:31;9.20;99.90
25438;DHT22;13364;49.084;9.978;2022-10-13T03:50:58;9.20;99.90
25438;DHT22;13364;49.084;9.978;2022-10-13T03:53:26;9.10;99.90
25438;DHT22;13364;49.084;9.978;2022-10-13T03:55:54;9.20;99.90
25438;DHT22;13364;49.084;9.978;2022-10-13T03:58:23;9.20;99.90
25438;DHT22;13364;49.084;9.978;2022-10-13T04:00:52;9.40;99.90
25438;DHT22;13364;49.084;9.978;2022-10-13T04:03:19;9.40;99.90
25438;DHT22;13364;49.084;9.978;2022-10-13T04:05:46;9.40;99.90
25438;DHT22;13364;49.084;9.978;2022-10-13T04:08:13;9.50;99.90
25438;DHT22;13364;49.084;9.978;2022-10-13T04:10:41;9.60;99.90
25438;DHT22;13364;49.084;9.978;2022-10-13T04:13:08;9.60;99.90
25438;DHT22;13364;49.084;9.978;2022-10-13T04:15:38;9.70;99.90
25438;DHT22;13364;49.084;9.978;2022-10-13T04:18:07;9.70;99.90
25438;DHT22;13364;49.084;9.978;2022-10-13T04:20:38;9.80;99.90
25438;DHT22;13364;49.084;9.978;2022-10-13T04:23:06;9.80;99.90
25438;DHT22;13364;49.084;9.978;2022-10-13T04:25:37;9.80;99.90
25438;DHT22;13364;49.084;9.978;2022-10-13T04:28:05;9.80;99.90
25438;DHT22;13364;49.084;9.978;2022-10-13T04:30:35;9.80;99.90
25438;DHT22;13364;49.084;9.978;2022-10-13T04:33:02;9.90;99.90
25438;DHT22;13364;49.084;9.978;2022-10-13T04:35:30;9.90;99.90
25438;DHT22;13364;49.084;9.978;2022-10-13T04:37:57;9.90;99.90
25438;DHT22;13364;49.084;9.978;2022-10-13T04:40:25;9.90;99.90
25438;DHT22;13364;49.084;9.978;2022-10-13T04:42:53;9.90;99.90
25438;DHT22;13364;49.084;9.978;2022-10-13T04:45:20;9.90;99.90
25438;DHT22;13364;49.084;9.978;2022-10-13T04:47:48;9.90;99.90
25438;DHT22;13364;49.084;9.978;2022-10-13T04:50:17;10.00;99.90
25438;DHT22;13364;49.084;9.978;2022-10-13T04:52:46;10.00;99.90
25438;DHT22;13364;49.084;9.978;2022-10-13T04:55:13;10.00;99.90
25438;DHT22;13364;49.084;9.978;2022-10-13T04:57:40;10.00;99.90
25438;DHT22;13364;49.084;9.978;2022-10-13T05:00:07;10.00;99.90
25438;DHT22;13364;49.084;9.978;2022-10-13T05:02:35;10.00;99.90
25438;DHT22;13364;49.084;9.978;2022-10-13T05:05:04;10.00;99.90
25438;DHT22;13364;49.084;9.978;2022-10-13T05:07:31;10.00;99.90
25438;DHT22;13364;49.084;9.978;2022-10-13T05:09:58;10.00;99.90
25438;DHT22;13364;49.084;9.978;2022-10-13T05:12:25;10.00;99.90
25438;DHT22;13364;49.084;9.978;2022-10-13T05:14:52;9.90;99.90
25438;DHT22;13364;49.084;9.978;2022-10-13T05:17:19;10.00;99.90
25438;DHT22;13364;49.084;9.978;2022-10-13T05:19:48;10.00;99.90
25438;DHT22;13364;49.084;9.978;2022-10-13T05:22:15;10.00;99.90
25438;DHT22;13364;49.084;9.978;2022-10-13T05:24:42;10.00;99.90
25438;DHT22;13364;49.084;9.978;2022-10-13T05:27:11;10.00;99.90
25438;DHT22;13364;49.084;9.978;2022-10-13T05:29:39;10.00;99.90
25438;DHT22;13364;49.084;9.978;2022-10-13T05:32:06;10.00;99.90
25438;DHT22;13364;49.084;9.978;2022-10-13T05:34:33;10.00;99.90
25438;DHT22;13364;49.084;9.978;2022-10-13T05:37:01;10.10;99.90
25438;DHT22;13364;49.084;9.978;2022-10-13T05:39:29;10.10;99.90
25438;DHT22;13364;49.084;9.978;2022-10-13T05:41:56;10.10;99.90
25438;DHT22;13364;49.084;9.978;2022-10-13T05:44:23;10.10;99.90
25438;DHT22;13364;49.084;9.978;2022-10-13T05:46:54;10.10;99.90
25438;DHT22;13364;49.084;9.978;2022-10-13T05:49:21;10.10;99.90
25438;DHT22;13364;49.084;9.978;2022-10-13T05:51:54;10.10;99.90
25438;DHT22;13364;49.084;9.978;2022-10-13T05:54:34;10.10;99.90
25438;DHT22;13364;49.084;9.978;2022-10-13T05:57:07;10.10;99.90
25438;DHT22;13364;49.084;9.978;2022-10-13T06:02:55;10.10;99.90
25438;DHT22;13364;49.084;9.978;2022-10-13T06:05:25;10.20;99.90
25438;DHT22;13364;49.084;9.978;2022-10-13T06:07:54;10.20;99.90
25438;DHT22;13364;49.084;9.978;2022-10-13T06:10:22;10.20;99.90
25438;DHT22;13364;49.084;9.978;2022-10-13T06:12:49;10.20;99.90
25438;DHT22;13364;49.084;9.978;2022-10-13T06:15:16;10.20;99.90
25438;DHT22;13364;49.084;9.978;2022-10-13T06:17:43;10.30;99.90
25438;DHT22;13364;49.084;9.978;2022-10-13T06:20:10;10.30;99.90
25438;DHT22;13364;49.084;9.978;2022-10-13T06:22:37;10.30;99.90
25438;DHT22;13364;49.084;9.978;2022-10-13T06:25:06;10.40;99.90
25438;DHT22;13364;49.084;9.978;2022-10-13T06:27:33;10.40;99.90
25438;DHT22;13364;49.084;9.978;2022-10-13T06:30:00;10.40;99.90
25438;DHT22;13364;49.084;9.978;2022-10-13T06:32:27;10.40;99.90
25438;DHT22;13364;49.084;9.978;2022-10-13T06:34:54;10.50;99.90
25438;DHT22;13364;49.084;9.978;2022-10-13T06:37:21;10.50;99.90
25438;DHT22;13364;49.084;9.978;2022-10-13T06:39:53;10.50;99.90
25438;DHT22;13364;49.084;9.978;2022-10-13T06:42:20;10.50;99.90
25438;DHT22;13364;49.084;9.978;2022-10-13T06:45:06;10.60;99.90
25438;DHT22;13364;49.084;9.978;2022-10-13T06:47:33;10.60;99.90
25438;DHT22;13364;49.084;9.978;2022-10-13T06:50:00;10.60;99.90
25438;DHT22;13364;49.084;9.978;2022-10-13T06:52:27;10.60;99.90
25438;DHT22;13364;49.084;9.978;2022-10-13T06:54:54;10.70;99.90
25438;DHT22;13364;49.084;9.978;2022-10-13T06:57:21;10.70;99.90
25438;DHT22;13364;49.084;9.978;2022-10-13T06:59:48;10.70;99.90
25438;DHT22;13364;49.084;9.978;2022-10-13T07:02:16;10.80;99.90
25438;DHT22;13364;49.084;9.978;2022-10-13T07:04:45;10.80;99.90
25438;DHT22;13364;49.084;9.978;2022-10-13T07:07:13;10.90;99.90
25438;DHT22;13364;49.084;9.978;2022-10-13T07:09:41;11.00;99.90
25438;DHT22;13364;49.084;9.978;2022-10-13T07:12:08;11.00;99.90
25438;DHT22;13364;49.084;9.978;2022-10-13T07:19:00;11.10;99.90
25438;DHT22;13364;49.084;9.978;2022-10-13T07:21:29;11.10;99.90
25438;DHT22;13364;49.084;9.978;2022-10-13T07:23:56;11.20;99.90
25438;DHT22;13364;49.084;9.978;2022-10-13T07:26:23;11.20;99.90
25438;DHT22;13364;49.084;9.978;2022-10-13T07:28:51;11.20;99.90
25438;DHT22;13364;49.084;9.978;2022-10-13T07:31:19;11.20;99.90
25438;DHT22;13364;49.084;9.978;2022-10-13T07:33:48;11.20;99.90
25438;DHT22;13364;49.084;9.978;2022-10-13T07:36:16;11.20;99.90
25438;DHT22;13364;49.084;9.978;2022-10-13T07:38:43;11.20;99.90
25438;DHT22;13364;49.084;9.978;2022-10-13T07:41:11;11.20;99.90
25438;DHT22;13364;49.084;9.978;2022-10-13T07:43:39;11.30;99.90
25438;DHT22;13364;49.084;9.978;2022-10-13T07:46:07;11.30;99.90
25438;DHT22;13364;49.084;9.978;2022-10-13T07:48:34;11.40;99.90
25438;DHT22;13364;49.084;9.978;2022-10-13T07:51:06;11.40;99.90
25438;DHT22;13364;49.084;9.978;2022-10-13T07:53:34;11.50;99.90
25438;DHT22;13364;49.084;9.978;2022-10-13T07:56:03;11.50;99.90
25438;DHT22;13364;49.084;9.978;2022-10-13T07:58:31;11.60;99.90
25438;DHT22;13364;49.084;9.978;2022-10-13T08:00:59;11.70;99.90
25438;DHT22;13364;49.084;9.978;2022-10-13T08:03:27;11.70;99.90
25438;DHT22;13364;49.084;9.978;2022-10-13T08:05:58;11.70;99.90
25438;DHT22;13364;49.084;9.978;2022-10-13T08:08:25;11.80;99.90
25438;DHT22;13364;49.084;9.978;2022-10-13T08:10:53;11.90;99.90
25438;DHT22;13364;49.084;9.978;2022-10-13T08:13:22;11.90;99.90
25438;DHT22;13364;49.084;9.978;2022-10-13T08:15:49;12.00;99.90
25438;DHT22;13364;49.084;9.978;2022-10-13T08:18:16;12.10;99.90
25438;DHT22;13364;49.084;9.978;2022-10-13T08:20:44;12.20;99.90
25438;DHT22;13364;49.084;9.978;2022-10-13T08:23:12;12.30;99.90
25438;DHT22;13364;49.084;9.978;2022-10-13T08:25:47;12.30;99.90
25438;DHT22;13364;49.084;9.978;2022-10-13T08:28:23;12.40;99.90
25438;DHT22;13364;49.084;9.978;2022-10-13T08:30:51;12.50;99.90
25438;DHT22;13364;49.084;9.978;2022-10-13T08:33:24;12.50;99.90
25438;DHT22;13364;49.084;9.978;2022-10-13T08:35:52;12.60;99.90
25438;DHT22;13364;49.084;9.978;2022-10-13T08:38:20;12.70;99.90
25438;DHT22;13364;49.084;9.978;2022-10-13T08:40:48;12.80;99.90
25438;DHT22;13364;49.084;9.978;2022-10-13T08:43:21;13.00;99.90
25438;DHT22;13364;49.084;9.978;2022-10-13T08:45:57;13.10;99.90
25438;DHT22;13364;49.084;9.978;2022-10-13T08:48:33;13.20;99.90
25438;DHT22;13364;49.084;9.978;2022-10-13T08:51:05;13.20;99.90
25438;DHT22;13364;49.084;9.978;2022-10-13T08:53:40;13.30;99.90
25438;DHT22;13364;49.084;9.978;2022-10-13T08:56:23;13.30;99.90
25438;DHT22;13364;49.084;9.978;2022-10-13T08:58:52;13.30;99.90
25438;DHT22;13364;49.084;9.978;2022-10-13T09:01:31;13.30;99.90
25438;DHT22;13364;49.084;9.978;2022-10-13T09:06:49;13.30;99.90
25438;DHT22;13364;49.084;9.978;2022-10-13T09:09:17;13.30;99.90
25438;DHT22;13364;49.084;9.978;2022-10-13T09:11:47;13.30;99.90
25438;DHT22;13364;49.084;9.978;2022-10-13T09:14:24;13.30;99.90
25438;DHT22;13364;49.084;9.978;2022-10-13T09:16:56;13.30;99.90
25438;DHT22;13364;49.084;9.978;2022-10-13T09:19:29;13.30;99.90
25438;DHT22;13364;49.084;9.978;2022-10-13T09:30:43;13.80;99.90
25438;DHT22;13364;49.084;9.978;2022-10-13T09:33:21;13.90;99.90
25438;DHT22;13364;49.084;9.978;2022-10-13T09:38:23;14.00;99.90
25438;DHT22;13364;49.084;9.978;2022-10-13T09:50:49;14.30;99.90
25438;DHT22;13364;49.084;9.978;2022-10-13T09:56:41;14.80;99.90
25438;DHT22;13364;49.084;9.978;2022-10-13T10:01:44;15.20;99.90
25438;DHT22;13364;49.084;9.978;2022-10-13T10:04:15;15.20;99.90
25438;DHT22;13364;49.084;9.978;2022-10-13T10:06:44;15.20;99.90
25438;DHT22;13364;49.084;9.978;2022-10-13T10:11:50;15.30;99.90
25438;DHT22;13364;49.084;9.978;2022-10-13T10:22:58;15.70;99.90
25438;DHT22;13364;49.084;9.978;2022-10-13T10:26:09;15.80;99.90
25438;DHT22;13364;49.084;9.978;2022-10-13T10:28:40;15.80;99.90
25438;DHT22;13364;49.084;9.978;2022-10-13T10:39:30;16.00;99.90
25438;DHT22;13364;49.084;9.978;2022-10-13T10:47:01;16.00;99.90
25438;DHT22;13364;49.084;9.978;2022-10-13T10:49:35;16.00;99.90
25438;DHT22;13364;49.084;9.978;2022-10-13T10:52:13;15.90;99.90
25438;DHT22;13364;49.084;9.978;2022-10-13T10:54:59;15.90;99.90
25438;DHT22;13364;49.084;9.978;2022-10-13T10:58:18;15.90;99.90
25438;DHT22;13364;49.084;9.978;2022-10-13T11:08:44;15.60;99.90
25438;DHT22;13364;49.084;9.978;2022-10-13T11:14:23;15.50;99.90
25438;DHT22;13364;49.084;9.978;2022-10-13T11:19:30;15.50;99.90
25438;DHT22;13364;49.084;9.978;2022-10-13T11:24:48;15.40;99.90
25438;DHT22;13364;49.084;9.978;2022-10-13T11:27:26;15.30;99.90
25438;DHT22;13364;49.084;9.978;2022-10-13T11:29:58;15.30;99.90
25438;DHT22;13364;49.084;9.978;2022-10-13T11:35:19;15.30;99.90
25438;DHT22;13364;49.084;9.978;2022-10-13T11:47:02;15.40;99.90
25438;DHT22;13364;49.084;9.978;2022-10-13T11:55:57;15.50;99.90
25438;DHT22;13364;49.084;9.978;2022-10-13T12:02:49;15.50;99.90
25438;DHT22;13364;49.084;9.978;2022-10-13T12:05:46;15.50;99.90
25438;DHT22;13364;49.084;9.978;2022-10-13T12:08:17;15.40;99.90
25438;DHT22;13364;49.084;9.978;2022-10-13T12:10:51;15.40;99.90
25438;DHT22;13364;49.084;9.978;2022-10-13T12:13:26;15.50;99.90
25438;DHT22;13364;49.084;9.978;2022-10-13T12:16:06;15.50;99.90
25438;DHT22;13364;49.084;9.978;2022-10-13T12:18:39;15.50;99.90
25438;DHT22;13364;49.084;9.978;2022-10-13T12:21:15;15.50;99.90
25438;DHT22;13364;49.084;9.978;2022-10-13T12:23:46;15.60;99.90
25438;DHT22;13364;49.084;9.978;2022-10-13T12:26:21;15.60;99.90
25438;DHT22;13364;49.084;9.978;2022-10-13T12:28:55;15.60;99.90
25438;DHT22;13364;49.084;9.978;2022-10-13T12:31:37;15.60;99.90
25438;DHT22;13364;49.084;9.978;2022-10-13T12:34:19;15.70;99.90
25438;DHT22;13364;49.084;9.978;2022-10-13T12:37:04;15.70;99.90
25438;DHT22;13364;49.084;9.978;2022-10-13T12:39:34;15.70;99.90
25438;DHT22;13364;49.084;9.978;2022-10-13T12:42:03;15.70;99.90
25438;DHT22;13364;49.084;9.978;2022-10-13T12:44:36;15.70;99.90
25438;DHT22;13364;49.084;9.978;2022-10-13T12:47:04;15.80;99.90
25438;DHT22;13364;49.084;9.978;2022-10-13T12:49:35;15.80;99.90
25438;DHT22;13364;49.084;9.978;2022-10-13T12:52:11;15.80;99.90
25438;DHT22;13364;49.084;9.978;2022-10-13T12:54:54;15.80;99.90
25438;DHT22;13364;49.084;9.978;2022-10-13T12:57:30;15.80;99.90
25438;DHT22;13364;49.084;9.978;2022-10-13T13:00:24;15.80;99.90
25438;DHT22;13364;49.084;9.978;2022-10-13T13:03:01;15.80;99.90
25438;DHT22;13364;49.084;9.978;2022-10-13T13:05:40;15.80;99.90
25438;DHT22;13364;49.084;9.978;2022-10-13T13:08:26;15.80;99.90
25438;DHT22;13364;49.084;9.978;2022-10-13T13:11:03;15.80;99.90
25438;DHT22;13364;49.084;9.978;2022-10-13T13:13:31;15.90;99.90
25438;DHT22;13364;49.084;9.978;2022-10-13T13:16:19;16.00;99.90
25438;DHT22;13364;49.084;9.978;2022-10-13T13:23:11;16.20;99.90
25438;DHT22;13364;49.084;9.978;2022-10-13T13:25:46;16.10;99.90
25438;DHT22;13364;49.084;9.978;2022-10-13T13:28:17;16.10;99.90
25438;DHT22;13364;49.084;9.978;2022-10-13T13:30:44;16.00;99.90
25438;DHT22;13364;49.084;9.978;2022-10-13T13:33:12;16.10;99.90
25438;DHT22;13364;49.084;9.978;2022-10-13T13:35:41;16.20;99.90
25438;DHT22;13364;49.084;9.978;2022-10-13T13:38:08;16.40;99.90
25438;DHT22;13364;49.084;9.978;2022-10-13T13:40:35;16.50;99.90
25438;DHT22;13364;49.084;9.978;2022-10-13T13:43:02;16.60;99.90
25438;DHT22;13364;49.084;9.978;2022-10-13T13:45:30;16.50;99.90
25438;DHT22;13364;49.084;9.978;2022-10-13T13:48:00;16.50;99.90
25438;DHT22;13364;49.084;9.978;2022-10-13T13:50:35;16.40;99.90
25438;DHT22;13364;49.084;9.978;2022-10-13T13:53:07;16.50;99.90
25438;DHT22;13364;49.084;9.978;2022-10-13T13:55:35;16.40;99.90
25438;DHT22;13364;49.084;9.978;2022-10-13T13:58:04;16.40;99.90
25438;DHT22;13364;49.084;9.978;2022-10-13T14:04:44;16.40;99.90
25438;DHT22;13364;49.084;9.978;2022-10-13T14:07:11;16.40;99.90
25438;DHT22;13364;49.084;9.978;2022-10-13T14:09:39;16.40;99.90
25438;DHT22;13364;49.084;9.978;2022-10-13T14:12:08;16.40;99.90
25438;DHT22;13364;49.084;9.978;2022-10-13T14:14:36;16.40;99.90
25438;DHT22;13364;49.084;9.978;2022-10-13T14:17:04;16.30;99.90
25438;DHT22;13364;49.084;9.978;2022-10-13T14:19:32;16.40;99.90
25438;DHT22;13364;49.084;9.978;2022-10-13T14:25:34;16.40;99.90
25438;DHT22;13364;49.084;9.978;2022-10-13T14:28:03;16.50;99.90
25438;DHT22;13364;49.084;9.978;2022-10-13T14:30:30;16.50;99.90
25438;DHT22;13364;49.084;9.978;2022-10-13T14:32:57;16.50;99.90
25438;DHT22;13364;49.084;9.978;2022-10-13T14:35:25;16.50;99.90
25438;DHT22;13364;49.084;9.978;2022-10-13T14:37:52;16.50;99.90
25438;DHT22;13364;49.084;9.978;2022-10-13T14:40:19;16.30;99.90
25438;DHT22;13364;49.084;9.978;2022-10-13T14:42:47;16.30;99.90
25438;DHT22;13364;49.084;9.978;2022-10-13T14:45:14;16.30;99.90
25438;DHT22;13364;49.084;9.978;2022-10-13T14:47:42;16.30;99.90
25438;DHT22;13364;49.084;9.978;2022-10-13T14:50:09;16.30;99.90
25438;DHT22;13364;49.084;9.978;2022-10-13T14:52:36;16.30;99.90
25438;DHT22;13364;49.084;9.978;2022-10-13T14:55:03;16.30;99.90
25438;DHT22;13364;49.084;9.978;2022-10-13T14:57:32;16.30;99.90
25438;DHT22;13364;49.084;9.978;2022-10-13T14:59:59;16.20;99.90
25438;DHT22;13364;49.084;9.978;2022-10-13T15:02:28;16.20;99.90
25438;DHT22;13364;49.084;9.978;2022-10-13T15:04:55;16.10;99.90
25438;DHT22;13364;49.084;9.978;2022-10-13T15:07:23;16.10;99.90
25438;DHT22;13364;49.084;9.978;2022-10-13T15:09:50;16.00;99.90
25438;DHT22;13364;49.084;9.978;2022-10-13T15:12:30;16.00;99.90
25438;DHT22;13364;49.084;9.978;2022-10-13T15:14:57;15.90;99.90
25438;DHT22;13364;49.084;9.978;2022-10-13T15:17:24;15.90;99.90
25438;DHT22;13364;49.084;9.978;2022-10-13T15:19:51;15.90;99.90
25438;DHT22;13364;49.084;9.978;2022-10-13T15:22:18;15.80;99.90
25438;DHT22;13364;49.084;9.978;2022-10-13T15:24:46;15.80;99.90
25438;DHT22;13364;49.084;9.978;2022-10-13T15:27:13;15.80;99.90
25438;DHT22;13364;49.084;9.978;2022-10-13T15:29:40;15.80;99.90
25438;DHT22;13364;49.084;9.978;2022-10-13T15:32:11;15.70;99.90
25438;DHT22;13364;49.084;9.978;2022-10-13T15:34:40;15.70;99.90
25438;DHT22;13364;49.084;9.978;2022-10-13T15:37:07;15.60;99.90
25438;DHT22;13364;49.084;9.978;2022-10-13T15:39:34;15.60;99.90
25438;DHT22;13364;49.084;9.978;2022-10-13T15:42:02;15.50;99.90
25438;DHT22;13364;49.084;9.978;2022-10-13T15:44:29;15.50;99.90
25438;DHT22;13364;49.084;9.978;2022-10-13T15:47:22;15.40;99.90
25438;DHT22;13364;49.084;9.978;2022-10-13T15:49:49;15.40;99.90
25438;DHT22;13364;49.084;9.978;2022-10-13T15:52:16;15.40;99.90
25438;DHT22;13364;49.084;9.978;2022-10-13T15:54:43;15.30;99.90
25438;DHT22;13364;49.084;9.978;2022-10-13T15:57:10;15.30;99.90
25438;DHT22;13364;49.084;9.978;2022-10-13T15:59:37;15.20;99.90
25438;DHT22;13364;49.084;9.978;2022-10-13T16:02:04;15.10;99.90
25438;DHT22;13364;49.084;9.978;2022-10-13T16:04:31;15.10;99.90
25438;DHT22;13364;49.084;9.978;2022-10-13T16:07:03;15.00;99.90
25438;DHT22;13364;49.084;9.978;2022-10-13T16:09:30;14.90;99.90
25438;DHT22;13364;49.084;9.978;2022-10-13T16:11:57;14.90;99.90
25438;DHT22;13364;49.084;9.978;2022-10-13T16:14:24;14.80;99.90
25438;DHT22;13364;49.084;9.978;2022-10-13T16:17:01;14.80;99.90
25438;DHT22;13364;49.084;9.978;2022-10-13T16:19:29;14.70;99.90
25438;DHT22;13364;49.084;9.978;2022-10-13T16:21:56;14.60;99.90
25438;DHT22;13364;49.084;9.978;2022-10-13T16:24:23;14.50;99.90
25438;DHT22;13364;49.084;9.978;2022-10-13T16:26:50;14.50;99.90
25438;DHT22;13364;49.084;9.978;2022-10-13T16:29:17;14.50;99.90
25438;DHT22;13364;49.084;9.978;2022-10-13T16:31:44;14.50;99.90
25438;DHT22;13364;49.084;9.978;2022-10-13T16:34:11;14.40;99.90
25438;DHT22;13364;49.084;9.978;2022-10-13T16:36:38;14.40;99.90
25438;DHT22;13364;49.084;9.978;2022-10-13T16:39:05;14.40;99.90
25438;DHT22;13364;49.084;9.978;2022-10-13T16:41:32;14.30;99.90
25438;DHT22;13364;49.084;9.978;2022-10-13T16:43:59;14.20;99.90
25438;DHT22;13364;49.084;9.978;2022-10-13T16:46:26;14.20;99.90
25438;DHT22;13364;49.084;9.978;2022-10-13T16:48:53;14.20;99.90
25438;DHT22;13364;49.084;9.978;2022-10-13T16:51:23;14.10;99.90
25438;DHT22;13364;49.084;9.978;2022-10-13T16:53:51;14.10;99.90
25438;DHT22;13364;49.084;9.978;2022-10-13T16:56:20;14.00;99.90
25438;DHT22;13364;49.084;9.978;2022-10-13T16:58:49;14.00;99.90
25438;DHT22;13364;49.084;9.978;2022-10-13T17:01:16;14.00;99.90
25438;DHT22;13364;49.084;9.978;2022-10-13T17:03:44;13.90;99.90
25438;DHT22;13364;49.084;9.978;2022-10-13T17:06:13;13.90;99.90
25438;DHT22;13364;49.084;9.978;2022-10-13T17:08:41;13.80;99.90
25438;DHT22;13364;49.084;9.978;2022-10-13T17:11:17;13.80;99.90
25438;DHT22;13364;49.084;9.978;2022-10-13T17:13:45;13.70;99.90
25438;DHT22;13364;49.084;9.978;2022-10-13T17:16:12;13.70;99.90
25438;DHT22;13364;49.084;9.978;2022-10-13T17:18:43;13.60;99.90
25438;DHT22;13364;49.084;9.978;2022-10-13T17:21:15;13.60;99.90
25438;DHT22;13364;49.084;9.978;2022-10-13T17:23:43;13.50;99.90
25438;DHT22;13364;49.084;9.978;2022-10-13T17:26:15;13.50;99.90
25438;DHT22;13364;49.084;9.978;2022-10-13T17:28:42;13.50;99.90
25438;DHT22;13364;49.084;9.978;2022-10-13T17:31:15;13.40;99.90
25438;DHT22;13364;49.084;9.978;2022-10-13T17:33:43;13.40;99.90
25438;DHT22;13364;49.084;9.978;2022-10-13T17:36:25;13.30;99.90
25438;DHT22;13364;49.084;9.978;2022-10-13T17:38:54;13.30;99.90
25438;DHT22;13364;49.084;9.978;2022-10-13T17:41:24;13.30;99.90
25438;DHT22;13364;49.084;9.978;2022-10-13T17:43:51;13.30;99.90
25438;DHT22;13364;49.084;9.978;2022-10-13T17:46:24;13.30;99.90
25438;DHT22;13364;49.084;9.978;2022-10-13T17:49:09;13.20;99.90
25438;DHT22;13364;49.084;9.978;2022-10-13T17:51:38;13.20;99.90
25438;DHT22;13364;49.084;9.978;2022-10-13T17:54:05;13.20;99.90
25438;DHT22;13364;49.084;9.978;2022-10-13T17:56:38;13.10;99.90
25438;DHT22;13364;49.084;9.978;2022-10-13T17:59:06;13.10;99.90
25438;DHT22;13364;49.084;9.978;2022-10-13T18:01:33;13.10;99.90
25438;DHT22;13364;49.084;9.978;2022-10-13T18:04:04;13.10;99.90
25438;DHT22;13364;49.084;9.978;2022-10-13T18:06:34;13.10;99.90
25438;DHT22;13364;49.084;9.978;2022-10-13T18:09:15;13.10;99.90
25438;DHT22;13364;49.084;9.978;2022-10-13T18:11:44;13.00;99.90
25438;DHT22;13364;49.084;9.978;2022-10-13T18:14:20;13.00;99.90
25438;DHT22;13364;49.084;9.978;2022-10-13T18:16:50;13.00;99.90